Flight Track Log - Related Links

Times and Time Zones

All times are in EDT time to prevent confusion due to time zone crossing. See the FIN666 flight status page for this flight to view local times or setup timezone preferences in your user account.

Time Position Orientation Groundspeed Altitude Reporting Facility
EDT Latitude Longitude Course Direction KTS MPH feet Rate Location/Type
Sun 07:30:00 AM 55.8300 13.0940 49° Northeast  Level Estimated
Sun 07:31:00 AM 55.9003 13.2410 49° Northeast  Level Estimated
Sun 07:32:00 AM 55.9705 13.3886 50° Northeast  Level Estimated
Sun 07:33:00 AM 56.0405 13.5368 50° Northeast  Level Estimated
Sun 07:34:00 AM 56.1103 13.6855 50° Northeast  Level Estimated
Sun 07:35:00 AM 56.1799 13.8347 50° Northeast  Level Estimated
Sun 07:36:00 AM 56.2493 13.9844 50° Northeast  Level Estimated
Sun 07:37:00 AM 56.3236 14.1456 50° Northeast  Level Estimated
Sun 07:38:00 AM 56.3977 14.3075 50° Northeast  Level Estimated
Sun 07:39:00 AM 56.4715 14.4699 51° Northeast  Level Estimated
Sun 07:40:00 AM 56.5452 14.6330 51° Northeast  Level Estimated
Sun 07:41:00 AM 56.6186 14.7968 51° Northeast  Level Estimated
Sun 07:42:00 AM 56.6918 14.9611 51° Northeast  Level Estimated
Sun 07:43:00 AM 56.7648 15.1262 51° Northeast  Level Estimated
Sun 07:44:00 AM 56.8376 15.2918 51° Northeast  Level Estimated
Sun 07:45:00 AM 56.9101 15.4581 51° Northeast  Level Estimated
Sun 07:46:00 AM 56.9825 15.6250 51° Northeast  Level Estimated
Sun 07:47:00 AM 57.0546 15.7926 52° Northeast  Level Estimated
Sun 07:48:00 AM 57.1265 15.9609 52° Northeast  Level Estimated
Sun 07:49:00 AM 57.1981 16.1298 52° Northeast  Level Estimated
Sun 07:50:00 AM 57.2686 16.2969 52° Northeast  Level Estimated
Sun 07:51:00 AM 57.3387 16.4647 52° Northeast  Level Estimated
Sun 07:52:00 AM 57.4087 16.6331 52° Northeast  Level Estimated
Sun 07:53:00 AM 57.4785 16.8021 52° Northeast  Level Estimated
Sun 07:54:00 AM 57.5480 16.9718 53° Northeast  Level Estimated
Sun 07:55:00 AM 57.6173 17.1422 53° Northeast  Level Estimated
Sun 07:56:00 AM 57.6863 17.3132 53° Northeast  Level Estimated
Sun 07:57:00 AM 57.7551 17.4848 53° Northeast  Level Estimated
Sun 07:58:00 AM 57.8237 17.6571 53° Northeast  Level Estimated
Sun 07:59:00 AM 57.8921 17.8301 53° Northeast  Level Estimated
Sun 08:00:00 AM 57.9602 18.0037 53° Northeast  Level Estimated
Sun 08:01:00 AM 58.0281 18.1780 54° Northeast  Level Estimated
Sun 08:02:00 AM 58.0957 18.3529 54° Northeast  Level Estimated
Sun 08:03:00 AM 58.1632 18.5285 54° Northeast  Level Estimated
Sun 08:04:00 AM 58.2303 18.7048 54° Northeast  Level Estimated
Sun 08:05:00 AM 58.2972 18.8817 54° Northeast  Level Estimated
Sun 08:06:00 AM 58.3639 19.0593 54° Northeast  Level Estimated
Sun 08:07:00 AM 58.4303 19.2376 55° Northeast  Level Estimated
Sun 08:08:00 AM 58.4965 19.4165 55° Northeast  Level Estimated
Sun 08:09:00 AM 58.5624 19.5961 55° Northeast  Level Estimated
Sun 08:10:00 AM 58.6281 19.7764 55° Northeast  Level Estimated
Sun 08:11:00 AM 58.6935 19.9574 55° Northeast  Level Estimated
Sun 08:12:00 AM 58.7587 20.1390 55° Northeast  Level Estimated
Sun 08:13:00 AM 58.8236 20.3214 55° Northeast  Level Estimated
Sun 08:14:00 AM 58.8883 20.5044 56° Northeast  Level Estimated
Sun 08:15:00 AM 58.9527 20.6881 56° Northeast  Level Estimated
Sun 08:16:00 AM 59.0168 20.8725 56° Northeast  Level Estimated
Sun 08:17:00 AM 59.0807 21.0576 56° Northeast  Level Estimated
Sun 08:18:00 AM 59.1443 21.2433 56° Northeast  Level Estimated
Sun 08:19:00 AM 59.2076 21.4298 56° Northeast  Level Estimated
Sun 08:20:00 AM 59.2707 21.6169 57° Northeast  Level Estimated
Sun 08:21:00 AM 59.3335 21.8047 57° Northeast  Level Estimated
Sun 08:22:00 AM 59.3960 21.9933 57° Northeast  Level Estimated
Sun 08:23:00 AM 59.4583 22.1825 57° Northeast  Level Estimated
Sun 08:24:00 AM 59.5203 22.3724 57° Northeast  Level Estimated
Sun 08:25:00 AM 59.5820 22.5630 57° Northeast  Level Estimated
Sun 08:26:00 AM 59.6434 22.7544 58° Northeast  Level Estimated
Sun 08:27:00 AM 59.7046 22.9464 58° Northeast  Level Estimated
Sun 08:28:00 AM 59.7654 23.1391 58° Northeast  Level Estimated
Sun 08:29:00 AM 59.8260 23.3325 58° Northeast  Level Estimated
Sun 08:30:00 AM 59.8863 23.5267 58° Northeast  Level Estimated
Sun 08:31:00 AM 59.9464 23.7215 58° Northeast  Level Estimated
Sun 08:32:00 AM 60.0061 23.9170 59° Northeast  Level Estimated
Sun 08:33:00 AM 60.0655 24.1133 59° Northeast  Level Estimated
Sun 08:34:00 AM 60.1247 24.3102 59° Northeast  Level Estimated
Sun 08:35:00 AM 60.1835 24.5079 59° Northeast  Level Estimated
Sun 08:36:00 AM 60.2421 24.7062 59° Northeast  Level Estimated
Sun 08:37:00 AM 60.3003 24.9053 59° Northeast  Level Estimated
Sun 08:38:00 AM 60.3172 24.9633 60° Northeast  Level Estimated
Sun 08:39:00 AM 60.3172 24.9633 North  Level Estimated
Sun 08:40:00 AM 60.3172 24.9633 North  Level Estimated
Sun 08:41:00 AM 60.3172 24.9633 North  Level Estimated
Sun 08:42:00 AM 60.3172 24.9633 North  Level Estimated
Sun 08:43:00 AM 60.3172 24.9633 North  Level Estimated
Sun 08:44:00 AM 60.3172 24.9633 North  Level Estimated
Sun 08:45:00 AM 60.3172 24.9633 North  Level Estimated
Sun 08:46:00 AM 60.3172 24.9633 North  Level Estimated
Sun 08:47:00 AM 60.3172 24.9633 North  Level Estimated
Sun 08:48:00 AM 60.3172 24.9633 North  Level Estimated

Login

Don't have an account? Register now (free) for customized features, flight alerts, and more!